createdAt,value
2019-01-15T00:01:50.140Z,100209.13
2019-01-15T00:04:21.260Z,100205.06
2019-01-15T00:07:12.142Z,100207.49
2019-01-15T00:10:02.301Z,100200.59
2019-01-15T00:12:52.437Z,100207.88
2019-01-15T00:15:38.143Z,100203.03
2019-01-15T00:18:29.170Z,100211.83
2019-01-15T00:21:01.175Z,100207.88
2019-01-15T00:23:31.294Z,100198.86
2019-01-15T00:26:21.416Z,100206.82
2019-01-15T00:28:53.471Z,100216.59
2019-01-15T00:31:25.609Z,100214.98
2019-01-15T00:34:16.870Z,100223.30
2019-01-15T00:37:07.837Z,100218.73
2019-01-15T00:39:41.488Z,100227.42
2019-01-15T00:45:10.298Z,100233.24
2019-01-15T00:47:41.452Z,100240.36
2019-01-15T00:50:35.523Z,100247.00
2019-01-15T00:56:28.285Z,100243.53
2019-01-15T00:59:00.344Z,100242.36
2019-01-15T01:01:50.440Z,100241.89
2019-01-15T01:04:21.576Z,100241.72
2019-01-15T01:06:53.560Z,100250.91
2019-01-15T01:10:15.970Z,100254.05
2019-01-15T01:12:36.661Z,100253.20
2019-01-15T01:15:10.010Z,100258.47
2019-01-15T01:17:41.158Z,100254.48
2019-01-15T01:23:18.653Z,100253.17
2019-01-15T01:25:49.866Z,100257.94
2019-01-15T01:28:20.995Z,100260.42
2019-01-15T01:30:52.091Z,100264.21
2019-01-15T01:33:24.316Z,100265.02
2019-01-15T01:35:55.474Z,100265.51
2019-01-15T01:38:26.594Z,100248.47
2019-01-15T01:43:41.280Z,100267.28
2019-01-15T01:46:12.540Z,100272.75
2019-01-15T01:51:59.878Z,100274.55
2019-01-15T01:54:30.986Z,100275.26
2019-01-15T01:57:04.308Z,100275.34
2019-01-15T01:59:55.200Z,100285.16
2019-01-15T02:02:45.329Z,100275.20
2019-01-15T02:05:16.451Z,100283.56
2019-01-15T02:07:48.442Z,100287.69
2019-01-15T02:10:39.448Z,100287.71
2019-01-15T02:13:11.441Z,100284.30
2019-01-15T02:15:42.531Z,100285.91
2019-01-15T02:18:32.674Z,100293.83
2019-01-15T02:21:04.636Z,100291.16
2019-01-15T02:23:35.773Z,100294.68
2019-01-15T02:26:26.683Z,100282.72
2019-01-15T02:28:57.781Z,100293.52
2019-01-15T02:31:28.951Z,100285.70
2019-01-15T02:34:01.202Z,100285.44
2019-01-15T02:36:32.293Z,100285.44
2019-01-15T02:39:22.408Z,100287.35
2019-01-15T02:41:53.632Z,100286.59
2019-01-15T02:44:24.753Z,100288.94
2019-01-15T02:50:04.690Z,100279.52
2019-01-15T02:52:35.789Z,100283.48
2019-01-15T02:55:26.775Z,100288.27
2019-01-15T02:57:57.878Z,100291.45
2019-01-15T03:00:29.842Z,100295.64
2019-01-15T03:03:19.904Z,100294.87
2019-01-15T03:08:53.289Z,100300.31
2019-01-15T03:11:24.482Z,100295.71
2019-01-15T03:13:55.601Z,100289.20
2019-01-15T03:16:45.686Z,100283.67
2019-01-15T03:19:17.726Z,100288.95
2019-01-15T03:21:48.888Z,100282.29
2019-01-15T03:24:39.840Z,100279.92
2019-01-15T03:27:11.017Z,100268.21
2019-01-15T03:30:01.955Z,100265.50
2019-01-15T03:32:52.067Z,100265.50
2019-01-15T03:35:23.982Z,100241.81
2019-01-15T03:37:55.129Z,100260.44
2019-01-15T03:40:27.445Z,100262.22
2019-01-15T03:43:03.216Z,100254.58
2019-01-15T03:45:50.354Z,100253.80
2019-01-15T03:48:41.347Z,100246.53
2019-01-15T03:54:21.293Z,100264.30
2019-01-15T03:57:11.348Z,100261.88
2019-01-15T04:00:01.447Z,100261.69
2019-01-15T04:02:34.854Z,100243.80
2019-01-15T04:11:02.734Z,100229.61
2019-01-15T04:13:33.822Z,100211.12
2019-01-15T04:16:04.971Z,100220.52
2019-01-15T04:18:55.079Z,100217.72
2019-01-15T04:21:45.162Z,100208.11
2019-01-15T04:24:35.312Z,100214.98
2019-01-15T04:27:06.473Z,100210.42
2019-01-15T04:29:37.634Z,100216.03
2019-01-15T04:32:28.583Z,100212.30
2019-01-15T04:35:00.681Z,100207.56
2019-01-15T04:37:31.806Z,100208.62
2019-01-15T04:40:22.968Z,100208.38
2019-01-15T04:42:54.115Z,100211.88
2019-01-15T04:45:26.422Z,100211.47
2019-01-15T04:47:58.694Z,100207.75
2019-01-15T04:50:49.633Z,100209.77
2019-01-15T04:53:39.743Z,100203.46
2019-01-15T04:56:11.717Z,100208.33
2019-01-15T04:58:43.742Z,100215.00
2019-01-15T05:01:16.702Z,100214.73
2019-01-15T05:03:49.689Z,100218.25
2019-01-15T05:06:39.685Z,100217.96
2019-01-15T05:09:10.886Z,100219.73
2019-01-15T05:11:42.071Z,100222.92
2019-01-15T05:14:32.107Z,100220.84
2019-01-15T05:17:04.090Z,100209.54
2019-01-15T05:19:36.017Z,100215.69
2019-01-15T05:22:26.211Z,100208.30
2019-01-15T05:24:57.393Z,100206.68
2019-01-15T05:30:17.229Z,100201.38
2019-01-15T05:33:08.215Z,100203.88
2019-01-15T05:35:40.198Z,100203.88
2019-01-15T05:38:11.398Z,100198.23
2019-01-15T05:41:01.580Z,100204.09
2019-01-15T05:44:03.223Z,100205.21
2019-01-15T05:47:12.941Z,100202.70
2019-01-15T05:49:45.030Z,100204.02
2019-01-15T05:52:16.193Z,100206.06
2019-01-15T05:55:27.601Z,100207.94
2019-01-15T06:00:59.536Z,100202.70
2019-01-15T06:03:32.361Z,100211.91
2019-01-15T06:06:22.735Z,100217.91
2019-01-15T06:08:54.744Z,100219.07
2019-01-15T06:11:26.786Z,100210.78
2019-01-15T06:14:17.254Z,100217.49
2019-01-15T06:16:48.420Z,100192.26
2019-01-15T06:19:19.571Z,100194.13
2019-01-15T06:22:09.707Z,100186.86
2019-01-15T06:24:59.865Z,100190.41
2019-01-15T06:27:50.861Z,100189.78
2019-01-15T06:30:42.301Z,100190.70
2019-01-15T06:33:32.403Z,100190.55
2019-01-15T06:39:08.034Z,100195.36
2019-01-15T06:41:58.756Z,100186.48
2019-01-15T06:44:48.781Z,100197.08
2019-01-15T06:47:20.815Z,100188.92
2019-01-15T06:49:51.980Z,100191.44
2019-01-15T06:52:42.152Z,100201.50
2019-01-15T06:55:15.897Z,100212.88
2019-01-15T06:57:47.232Z,100189.15
2019-01-15T07:00:40.149Z,100210.84
2019-01-15T07:03:12.137Z,100190.84
2019-01-15T07:05:44.516Z,100211.86
2019-01-15T07:08:16.409Z,100219.59
2019-01-15T07:10:47.652Z,100220.00
2019-01-15T07:13:39.197Z,100225.17
2019-01-15T07:16:10.827Z,100219.95
2019-01-15T07:18:42.794Z,100214.29
2019-01-15T07:21:13.925Z,100215.19
2019-01-15T07:23:44.121Z,100218.83
2019-01-15T07:26:18.515Z,100213.45
2019-01-15T07:28:53.091Z,100214.59
2019-01-15T07:31:25.438Z,100214.42
2019-01-15T07:33:57.472Z,100224.48
2019-01-15T07:36:29.478Z,100235.32
2019-01-15T07:39:01.550Z,100244.13
2019-01-15T07:41:32.598Z,100242.72
2019-01-15T07:44:04.425Z,100245.00
2019-01-15T07:46:35.812Z,100246.75
2019-01-15T07:49:07.030Z,100251.29
2019-01-15T07:51:39.133Z,100243.00
2019-01-15T07:54:10.283Z,100238.59
2019-01-15T07:56:42.588Z,100237.19
2019-01-15T07:59:13.638Z,100235.25
2019-01-15T08:01:45.022Z,100243.83
2019-01-15T08:04:16.191Z,100239.83
2019-01-15T08:06:47.653Z,100255.16
2019-01-15T08:09:19.669Z,100257.38
2019-01-15T08:11:53.086Z,100247.92
2019-01-15T08:14:29.162Z,100238.56
2019-01-15T08:17:04.754Z,100243.43
2019-01-15T08:19:40.889Z,100246.80
2019-01-15T08:22:22.938Z,100247.59
2019-01-15T08:24:56.632Z,100243.91
2019-01-15T08:27:30.846Z,100248.25
2019-01-15T08:30:03.156Z,100253.00
2019-01-15T08:32:34.249Z,100256.70
2019-01-15T08:35:05.937Z,100247.53
2019-01-15T08:37:39.592Z,100252.81
2019-01-15T08:40:12.834Z,100231.16
2019-01-15T08:42:44.169Z,100248.27
2019-01-15T08:45:17.046Z,100244.48
2019-01-15T08:47:51.193Z,100256.29
2019-01-15T08:50:24.779Z,100256.29
2019-01-15T08:52:56.768Z,100252.34
2019-01-15T08:55:28.899Z,100262.69
2019-01-15T08:58:00.279Z,100262.69
2019-01-15T09:00:33.694Z,100246.75
2019-01-15T09:03:05.254Z,100259.39
2019-01-15T09:05:37.579Z,100256.70
2019-01-15T09:08:08.746Z,100252.42
2019-01-15T09:10:40.131Z,100265.81
2019-01-15T09:13:11.777Z,100257.81
2019-01-15T09:15:43.745Z,100233.88
2019-01-15T09:18:17.381Z,100245.67
2019-01-15T09:20:48.516Z,100250.52
2019-01-15T09:23:22.100Z,100246.17
2019-01-15T09:25:54.479Z,100237.73
2019-01-15T09:28:25.908Z,100247.86
2019-01-15T09:30:57.170Z,100249.87
2019-01-15T09:33:31.110Z,100251.33
2019-01-15T09:36:02.155Z,100239.97
2019-01-15T09:38:33.337Z,100228.42
2019-01-15T09:41:04.407Z,100232.06
2019-01-15T09:43:35.520Z,100225.05
2019-01-15T09:46:08.692Z,100229.34
2019-01-15T09:48:40.062Z,100222.08
2019-01-15T09:51:11.302Z,100222.08
2019-01-15T09:53:41.556Z,100225.19
2019-01-15T09:56:11.811Z,100223.92
2019-01-15T09:58:45.910Z,100229.95
2019-01-15T10:01:18.625Z,100226.56
2019-01-15T10:03:50.587Z,100226.56
2019-01-15T10:06:21.269Z,100245.05
2019-01-15T10:08:53.222Z,100239.51
2019-01-15T10:11:24.417Z,100236.32
2019-01-15T10:13:55.937Z,100226.99
2019-01-15T10:16:27.076Z,100225.42
2019-01-15T10:18:57.302Z,100226.23
2019-01-15T10:21:28.784Z,100213.58
2019-01-15T10:24:01.670Z,100222.37
2019-01-15T10:26:31.941Z,100209.34
2019-01-15T10:29:03.101Z,100205.98
2019-01-15T10:32:29.001Z,100200.27
2019-01-15T10:35:02.333Z,100199.77
2019-01-15T10:37:39.997Z,100199.77
2019-01-15T10:40:11.683Z,100192.23
2019-01-15T10:42:43.140Z,100180.98
2019-01-15T10:45:36.547Z,100178.77
2019-01-15T10:48:16.842Z,100175.86
2019-01-15T10:50:49.959Z,100186.58
2019-01-15T10:53:25.432Z,100172.37
2019-01-15T10:55:57.825Z,100182.14
2019-01-15T10:58:29.569Z,100170.73
2019-01-15T11:01:00.069Z,100156.11
2019-01-15T11:03:31.148Z,100149.86
2019-01-15T11:06:01.347Z,100171.45
2019-01-15T11:08:36.156Z,100169.50
2019-01-15T11:11:08.454Z,100166.59
2019-01-15T11:13:38.692Z,100158.60
2019-01-15T11:16:10.605Z,100159.09
2019-01-15T11:18:42.656Z,100161.76
2019-01-15T11:21:12.913Z,100160.12
2019-01-15T11:23:53.231Z,100162.42
2019-01-15T11:26:24.783Z,100139.88
2019-01-15T11:28:56.228Z,100159.76
2019-01-15T11:31:27.736Z,100156.16
2019-01-15T11:34:02.992Z,100150.88
2019-01-15T11:36:38.938Z,100142.53
2019-01-15T11:39:14.299Z,100133.92
2019-01-15T11:41:47.366Z,100130.62
2019-01-15T11:44:34.157Z,100119.94
2019-01-15T11:47:09.904Z,100112.42
2019-01-15T11:49:41.359Z,100117.27
2019-01-15T11:52:12.832Z,100119.95
2019-01-15T11:54:44.521Z,100115.16
2019-01-15T11:57:14.813Z,100113.15
2019-01-15T11:59:46.163Z,100107.16
2019-01-15T12:02:36.697Z,100102.48
2019-01-15T12:05:27.331Z,100097.63
2019-01-15T12:08:17.900Z,100098.48
2019-01-15T12:11:08.212Z,100097.48
2019-01-15T12:14:04.252Z,100099.23
2019-01-15T12:17:04.642Z,100099.34
2019-01-15T12:19:42.282Z,100095.83
2019-01-15T12:22:38.471Z,100083.84
2019-01-15T12:25:23.973Z,100085.45
2019-01-15T12:28:15.982Z,100079.36
2019-01-15T12:31:15.372Z,100076.20
2019-01-15T12:34:06.512Z,100055.95
2019-01-15T12:36:56.261Z,100055.95
2019-01-15T12:40:03.274Z,100074.48
2019-01-15T12:43:01.397Z,100056.68
2019-01-15T12:45:58.631Z,100077.06
2019-01-15T12:48:53.023Z,100067.39
2019-01-15T12:51:42.414Z,100086.47
2019-01-15T12:54:32.731Z,100086.47
2019-01-15T12:57:21.711Z,100066.91
2019-01-15T13:00:13.330Z,100062.92
2019-01-15T13:03:02.104Z,100063.59
2019-01-15T13:05:50.450Z,100065.39
2019-01-15T13:08:41.580Z,100063.69
2019-01-15T13:11:29.373Z,100051.56
2019-01-15T13:14:18.816Z,100056.56
2019-01-15T13:17:12.258Z,100052.88
2019-01-15T13:20:20.681Z,100046.87
2019-01-15T13:23:14.343Z,100044.91
2019-01-15T13:26:19.671Z,100041.53
2019-01-15T13:29:10.816Z,100053.92
2019-01-15T13:32:06.147Z,100039.73
2019-01-15T13:34:50.987Z,100041.55
2019-01-15T13:37:43.873Z,100031.94
2019-01-15T13:40:36.722Z,100031.22
2019-01-15T13:43:33.953Z,100021.38
2019-01-15T13:46:21.371Z,100033.87
2019-01-15T13:49:16.425Z,100031.86
2019-01-15T13:52:18.549Z,100036.22
2019-01-15T13:55:11.675Z,100037.22
2019-01-15T13:58:08.397Z,100037.05
2019-01-15T14:01:11.107Z,100030.70
2019-01-15T14:04:04.570Z,100039.88
2019-01-15T14:07:09.335Z,100043.73
2019-01-15T14:10:09.469Z,100037.39
2019-01-15T14:13:00.512Z,100018.55
2019-01-15T14:16:02.271Z,100019.61
2019-01-15T14:19:00.466Z,100010.33
2019-01-15T14:21:56.511Z,100023.46
2019-01-15T14:24:58.313Z,100018.34
2019-01-15T14:28:05.818Z,100016.03
2019-01-15T14:31:07.588Z,100016.03
2019-01-15T14:33:57.481Z,100028.30
2019-01-15T14:37:03.823Z,100026.45
2019-01-15T14:39:55.872Z,100030.30
2019-01-15T14:43:06.210Z,100025.40
2019-01-15T14:46:18.232Z,100024.19
2019-01-15T14:49:26.562Z,100023.64
2019-01-15T14:52:20.449Z,100012.39
2019-01-15T14:55:31.823Z,100010.32
2019-01-15T14:58:23.587Z,100005.22
2019-01-15T15:01:15.538Z,100003.98
2019-01-15T15:04:05.146Z,100022.55
2019-01-15T15:07:02.291Z,100018.88
2019-01-15T15:10:04.692Z,100017.70
2019-01-15T15:13:13.101Z,100020.69
2019-01-15T15:16:12.139Z,100025.64
2019-01-15T15:19:11.673Z,100012.93
2019-01-15T15:22:07.292Z,100020.37
2019-01-15T15:25:13.484Z,100025.64
2019-01-15T15:28:05.544Z,100028.52
2019-01-15T15:31:11.812Z,100018.88
2019-01-15T15:33:53.839Z,100015.06
2019-01-15T15:36:45.189Z,100025.22
2019-01-15T15:39:26.717Z,100025.22
2019-01-15T15:42:36.625Z,100018.83
2019-01-15T15:45:32.355Z,100023.88
2019-01-15T15:48:22.729Z,100020.72
2019-01-15T15:51:27.632Z,100012.53
2019-01-15T15:54:16.434Z,100001.52
2019-01-15T15:57:07.997Z,99996.86
2019-01-15T16:00:19.391Z,100011.02
2019-01-15T16:03:10.043Z,100013.81
2019-01-15T16:06:01.957Z,100013.14
2019-01-15T16:08:56.154Z,100008.81
2019-01-15T16:11:49.971Z,100011.14
2019-01-15T16:14:39.897Z,100012.36
2019-01-15T16:17:29.164Z,100009.86
2019-01-15T16:20:31.139Z,100009.84
2019-01-15T16:23:22.230Z,100009.02
2019-01-15T16:26:22.279Z,100016.20
2019-01-15T16:29:23.097Z,100025.45
2019-01-15T16:32:14.019Z,100025.45
2019-01-15T16:35:04.210Z,100020.77
2019-01-15T16:37:53.309Z,100018.78
2019-01-15T16:40:54.959Z,100014.63
2019-01-15T16:43:43.667Z,100014.84
2019-01-15T16:46:31.702Z,100009.51
2019-01-15T16:49:31.139Z,100008.16
2019-01-15T16:52:35.160Z,100004.97
2019-01-15T16:55:27.257Z,100018.25
2019-01-15T16:58:29.388Z,100016.61
2019-01-15T17:01:22.515Z,100021.97
2019-01-15T17:04:03.255Z,100024.62
2019-01-15T17:07:06.162Z,100014.95
2019-01-15T17:10:01.472Z,100014.95
2019-01-15T17:13:04.602Z,100005.12
2019-01-15T17:16:17.576Z,100011.64
2019-01-15T17:19:26.629Z,99995.93
2019-01-15T17:22:13.393Z,99995.93
2019-01-15T17:25:01.719Z,100011.45
2019-01-15T17:27:56.170Z,100013.72
2019-01-15T17:30:48.699Z,100011.55
2019-01-15T17:33:32.401Z,100013.89
2019-01-15T17:36:19.945Z,100009.06
2019-01-15T17:39:08.784Z,100004.38
2019-01-15T17:41:58.144Z,100005.75
2019-01-15T17:44:47.932Z,100015.07
2019-01-15T17:47:38.773Z,99984.48
2019-01-15T17:50:31.731Z,99996.30
2019-01-15T17:53:20.884Z,99998.72
2019-01-15T17:56:25.437Z,100000.62
2019-01-15T17:59:26.315Z,100001.77
2019-01-15T18:02:27.526Z,100003.42
2019-01-15T18:05:14.879Z,100006.44
2019-01-15T18:08:04.235Z,100003.99
2019-01-15T18:11:02.315Z,100016.55
2019-01-15T18:13:51.965Z,100006.02
2019-01-15T18:16:48.560Z,100015.67
2019-01-15T18:19:36.391Z,100012.02
2019-01-15T18:22:16.538Z,100004.16
2019-01-15T18:25:13.343Z,100005.83
2019-01-15T18:27:53.659Z,100002.98
2019-01-15T18:30:41.157Z,100003.14
2019-01-15T18:33:44.908Z,100001.62
2019-01-15T18:36:37.040Z,100006.45
2019-01-15T18:39:43.607Z,100006.63
2019-01-15T18:42:36.324Z,100013.44
2019-01-15T18:45:24.617Z,100010.48
2019-01-15T18:48:14.834Z,100010.48
2019-01-15T18:51:10.600Z,100006.16
2019-01-15T18:54:05.971Z,100015.14
2019-01-15T18:56:55.038Z,100005.45
2019-01-15T18:59:47.878Z,100013.78
2019-01-15T19:02:39.146Z,99999.99
2019-01-15T19:05:35.163Z,99990.49
2019-01-15T19:08:24.952Z,99991.45
2019-01-15T19:11:15.883Z,100008.14
2019-01-15T19:14:17.688Z,100009.78
2019-01-15T19:17:07.554Z,99988.05
2019-01-15T19:19:57.411Z,100011.75
2019-01-15T19:22:49.776Z,100009.73
2019-01-15T19:25:35.275Z,100014.22
2019-01-15T19:28:37.094Z,100015.95
2019-01-15T19:31:27.215Z,100007.44
2019-01-15T19:34:21.883Z,100007.36
2019-01-15T19:37:04.802Z,100014.19
2019-01-15T19:39:48.333Z,100010.53
2019-01-15T19:42:43.908Z,100011.27
2019-01-15T19:45:49.034Z,100010.30
2019-01-15T19:48:37.009Z,100009.80
2019-01-15T19:51:37.309Z,100008.39
2019-01-15T19:54:20.042Z,100008.08
2019-01-15T19:57:24.589Z,100010.28
2019-01-15T20:00:23.354Z,100009.55
2019-01-15T20:03:13.555Z,100011.20
2019-01-15T20:06:15.214Z,100013.28
2019-01-15T20:09:06.237Z,100016.45
2019-01-15T20:12:16.385Z,100012.91
2019-01-15T20:15:05.651Z,100010.56
2019-01-15T20:18:06.113Z,100016.33
2019-01-15T20:21:01.670Z,100014.63
2019-01-15T20:23:49.877Z,100018.45
2019-01-15T20:26:39.242Z,100014.46
2019-01-15T20:29:30.087Z,100015.09
2019-01-15T20:32:31.181Z,100021.78
2019-01-15T20:35:20.163Z,100009.63
2019-01-15T20:38:12.964Z,100020.73
2019-01-15T20:41:16.178Z,100016.08
2019-01-15T20:44:10.079Z,100008.47
2019-01-15T20:47:09.474Z,100008.29
2019-01-15T20:50:05.222Z,100015.41
2019-01-15T20:52:49.164Z,100013.94
2019-01-15T20:55:38.379Z,100006.43
2019-01-15T20:58:39.199Z,100008.28
2019-01-15T21:01:37.413Z,100004.76
2019-01-15T21:04:35.105Z,100001.70
2019-01-15T21:07:17.781Z,100006.22
2019-01-15T21:10:09.807Z,100002.28
2019-01-15T21:12:59.251Z,100003.31
2019-01-15T21:15:48.301Z,100008.80
2019-01-15T21:18:40.463Z,100002.17
2019-01-15T21:21:25.515Z,100003.97
2019-01-15T21:24:14.859Z,100001.00
2019-01-15T21:27:13.527Z,99993.14
2019-01-15T21:30:03.167Z,100001.97
2019-01-15T21:33:03.498Z,99997.67
2019-01-15T21:35:52.385Z,99998.17
2019-01-15T21:38:46.424Z,99997.75
2019-01-15T21:41:36.229Z,99999.26
2019-01-15T21:44:28.878Z,99998.46
2019-01-15T21:47:20.118Z,100000.09
2019-01-15T21:50:06.897Z,100004.97
2019-01-15T21:53:03.843Z,100003.16
2019-01-15T21:56:01.287Z,100005.84
2019-01-15T21:58:50.691Z,99996.77
2019-01-15T22:01:38.921Z,99986.34
2019-01-15T22:04:38.242Z,99986.34
2019-01-15T22:07:27.256Z,99985.74
2019-01-15T22:10:17.691Z,99990.45
2019-01-15T22:13:07.567Z,99991.48
2019-01-15T22:16:02.585Z,99990.78
2019-01-15T22:18:48.647Z,99990.21
2019-01-15T22:21:44.619Z,99991.91
2019-01-15T22:24:35.499Z,99996.14
2019-01-15T22:27:40.228Z,99991.84
2019-01-15T22:30:38.901Z,99990.34
2019-01-15T22:33:38.193Z,99988.82
2019-01-15T22:36:26.392Z,99985.50
2019-01-15T22:39:19.606Z,99982.52
2019-01-15T22:42:00.574Z,99989.83
2019-01-15T22:44:47.031Z,99979.18
2019-01-15T22:47:30.220Z,99975.52
2019-01-15T22:50:39.076Z,99976.00
2019-01-15T22:53:27.477Z,99979.49
2019-01-15T22:56:21.447Z,99966.34
2019-01-15T22:59:14.147Z,99963.82
2019-01-15T23:01:59.205Z,99957.29
2019-01-15T23:04:48.221Z,99954.48
2019-01-15T23:07:38.549Z,99948.63
2019-01-15T23:10:34.960Z,99962.99
2019-01-15T23:13:28.948Z,99952.98
2019-01-15T23:16:26.236Z,99948.13
2019-01-15T23:19:25.460Z,99938.09
2019-01-15T23:22:04.235Z,99942.42
2019-01-15T23:25:00.280Z,99937.45
2019-01-15T23:27:53.267Z,99945.42
2019-01-15T23:30:48.939Z,99945.43
2019-01-15T23:33:37.246Z,99940.73
2019-01-15T23:36:33.542Z,99940.97
2019-01-15T23:39:32.726Z,99937.63
2019-01-15T23:42:23.246Z,99932.94
2019-01-15T23:45:09.407Z,99933.79
2019-01-15T23:47:52.485Z,99922.45
2019-01-15T23:50:45.440Z,99932.45
2019-01-15T23:53:42.671Z,99923.94
2019-01-15T23:56:32.806Z,99929.50
2019-01-15T23:59:18.322Z,99925.95
